createdAt,value
2022-12-20T00:01:31.575Z,-2.29
2022-12-20T00:04:03.021Z,-2.30
2022-12-20T00:06:30.674Z,-2.34
2022-12-20T00:09:01.733Z,-2.34
2022-12-20T00:11:30.421Z,-2.30
2022-12-20T00:13:58.924Z,-2.32
2022-12-20T00:16:28.457Z,-2.40
2022-12-20T00:19:03.784Z,-2.39
2022-12-20T00:21:33.646Z,-2.44
2022-12-20T00:24:01.271Z,-2.51
2022-12-20T00:26:32.531Z,-2.45
2022-12-20T00:29:01.616Z,-2.45
2022-12-20T00:31:31.114Z,-2.42
2022-12-20T00:34:00.409Z,-2.41
2022-12-20T00:36:31.344Z,-2.43
2022-12-20T00:39:00.295Z,-2.46
2022-12-20T00:41:32.204Z,-2.49
2022-12-20T00:44:00.788Z,-2.55
2022-12-20T00:46:31.152Z,-2.62
2022-12-20T00:49:00.273Z,-2.72
2022-12-20T00:51:32.060Z,-2.72
2022-12-20T00:53:59.704Z,-2.85
2022-12-20T00:56:27.658Z,-2.85
2022-12-20T00:58:59.779Z,-2.82
2022-12-20T01:01:31.937Z,-2.81
2022-12-20T01:04:01.005Z,-2.74
2022-12-20T01:06:30.009Z,-2.76
2022-12-20T01:08:58.256Z,-2.82
2022-12-20T01:11:32.552Z,-2.80
2022-12-20T01:14:05.182Z,-2.83
2022-12-20T01:16:42.772Z,-2.73
2022-12-20T01:19:14.909Z,-2.71
2022-12-20T01:21:45.567Z,-2.67
2022-12-20T01:24:17.053Z,-2.65
2022-12-20T01:26:46.142Z,-2.61
2022-12-20T01:29:15.530Z,-2.64
2022-12-20T01:31:49.068Z,-2.64
2022-12-20T01:34:19.906Z,-2.58
2022-12-20T01:36:49.331Z,-2.52
2022-12-20T01:39:18.040Z,-2.54
2022-12-20T01:41:48.502Z,-2.56
2022-12-20T01:44:24.960Z,-2.56
2022-12-20T01:46:55.869Z,-2.56
2022-12-20T01:49:38.569Z,-2.60
2022-12-20T01:52:29.856Z,-2.58
2022-12-20T01:55:08.091Z,-2.55
2022-12-20T01:57:56.527Z,-2.54
2022-12-20T02:00:24.754Z,-2.53
2022-12-20T02:02:52.530Z,-2.52
2022-12-20T02:05:23.544Z,-2.54
2022-12-20T02:07:54.988Z,-2.54
2022-12-20T02:10:27.537Z,-2.57
2022-12-20T02:13:00.639Z,-2.59
2022-12-20T02:15:45.962Z,-2.61
2022-12-20T02:18:44.440Z,-2.65
2022-12-20T02:21:26.304Z,-2.61
2022-12-20T02:24:23.677Z,-2.57
2022-12-20T02:27:14.815Z,-2.58
2022-12-20T02:30:12.685Z,-2.60
2022-12-20T02:33:12.784Z,-2.71
2022-12-20T02:35:42.338Z,-2.71
2022-12-20T02:38:31.026Z,-2.70
2022-12-20T02:41:04.287Z,-2.72
2022-12-20T02:43:54.196Z,-2.78
2022-12-20T02:46:24.175Z,-2.75
2022-12-20T02:48:54.752Z,-2.75
2022-12-20T02:51:24.299Z,-2.65
2022-12-20T02:53:52.392Z,-2.65
2022-12-20T02:56:32.131Z,-2.55
2022-12-20T02:59:07.967Z,-2.50
2022-12-20T03:01:52.153Z,-2.43
2022-12-20T03:04:25.262Z,-2.36
2022-12-20T03:07:06.757Z,-2.29
2022-12-20T03:09:41.496Z,-2.15
2022-12-20T03:12:11.525Z,-2.11
2022-12-20T03:14:40.287Z,-2.05
2022-12-20T03:17:09.674Z,-2.01
2022-12-20T03:19:39.107Z,-2.00
2022-12-20T03:22:07.281Z,-2.03
2022-12-20T03:24:34.833Z,-2.02
2022-12-20T03:27:04.263Z,-2.02
2022-12-20T03:29:32.171Z,-1.96
2022-12-20T03:32:00.280Z,-2.00
2022-12-20T03:34:28.123Z,-2.03
2022-12-20T03:36:56.078Z,-2.07
2022-12-20T03:39:24.062Z,-2.06
2022-12-20T03:41:52.812Z,-2.09
2022-12-20T03:44:20.823Z,-2.14
2022-12-20T03:46:50.011Z,-2.12
2022-12-20T03:49:18.153Z,-2.12
2022-12-20T03:51:47.471Z,-2.14
2022-12-20T03:54:15.449Z,-2.10
2022-12-20T03:56:51.645Z,-2.09
2022-12-20T03:59:19.958Z,-2.11
2022-12-20T04:01:48.060Z,-2.19
2022-12-20T04:04:16.330Z,-2.27
2022-12-20T04:06:44.912Z,-2.26
2022-12-20T04:09:12.792Z,-2.22
2022-12-20T04:11:44.401Z,-2.19
2022-12-20T04:14:14.128Z,-2.19
2022-12-20T04:16:42.799Z,-2.22
2022-12-20T04:19:11.578Z,-2.14
2022-12-20T04:21:41.848Z,-2.10
2022-12-20T04:24:10.834Z,-2.08
2022-12-20T04:26:43.165Z,-2.09
2022-12-20T04:29:11.276Z,-2.08
2022-12-20T04:31:39.799Z,-2.08
2022-12-20T04:34:07.818Z,-2.11
2022-12-20T04:36:35.867Z,-2.16
2022-12-20T04:39:05.529Z,-2.21
2022-12-20T04:41:34.857Z,-2.25
2022-12-20T04:44:04.662Z,-2.19
2022-12-20T04:46:37.286Z,-2.19
2022-12-20T04:49:07.028Z,-2.17
2022-12-20T04:51:35.125Z,-2.16
2022-12-20T04:54:03.031Z,-2.15
2022-12-20T04:56:32.815Z,-2.13
2022-12-20T04:59:02.820Z,-2.09
2022-12-20T05:01:32.696Z,-2.03
2022-12-20T05:04:00.540Z,-2.03
2022-12-20T05:06:30.027Z,-1.95
2022-12-20T05:08:57.958Z,-1.86
2022-12-20T05:11:25.766Z,-1.86
2022-12-20T05:13:53.399Z,-1.89
2022-12-20T05:16:21.553Z,-1.88
2022-12-20T05:18:49.979Z,-1.88
2022-12-20T05:21:36.822Z,-1.81
2022-12-20T05:24:24.906Z,-1.78
2022-12-20T05:26:54.549Z,-1.71
2022-12-20T05:29:22.246Z,-1.71
2022-12-20T05:31:50.400Z,-1.66
2022-12-20T05:34:18.586Z,-1.73
2022-12-20T05:36:47.903Z,-1.73
2022-12-20T05:39:15.708Z,-1.75
2022-12-20T05:41:43.525Z,-1.81
2022-12-20T05:44:11.566Z,-1.85
2022-12-20T05:46:41.185Z,-1.92
2022-12-20T05:49:10.634Z,-1.87
2022-12-20T05:51:38.463Z,-1.88
2022-12-20T05:54:20.832Z,-1.89
2022-12-20T05:56:50.519Z,-1.88
2022-12-20T05:59:20.453Z,-1.83
2022-12-20T06:01:48.021Z,-1.83
2022-12-20T06:04:16.125Z,-1.82
2022-12-20T06:06:44.942Z,-1.70
2022-12-20T06:09:12.755Z,-1.70
2022-12-20T06:11:42.359Z,-1.65
2022-12-20T06:14:11.828Z,-1.65
2022-12-20T06:16:41.469Z,-1.68
2022-12-20T06:19:14.667Z,-1.75
2022-12-20T06:21:41.792Z,-1.72
2022-12-20T06:24:11.542Z,-1.72
2022-12-20T06:26:41.151Z,-1.73
2022-12-20T06:29:12.208Z,-1.74
2022-12-20T06:31:44.408Z,-1.82
2022-12-20T06:34:12.004Z,-1.78
2022-12-20T06:36:41.629Z,-1.79
2022-12-20T06:39:11.167Z,-1.79
2022-12-20T06:41:41.055Z,-1.75
2022-12-20T06:44:08.790Z,-1.74
2022-12-20T06:46:36.451Z,-1.72
2022-12-20T06:49:04.410Z,-1.71
2022-12-20T06:51:32.907Z,-1.67
2022-12-20T06:54:03.333Z,-1.65
2022-12-20T06:56:39.258Z,-1.59
2022-12-20T06:59:02.242Z,-1.52
2022-12-20T07:01:29.891Z,-1.44
2022-12-20T07:03:57.832Z,-1.39
2022-12-20T07:06:26.512Z,-1.35
2022-12-20T07:08:54.243Z,-1.18
2022-12-20T07:11:22.367Z,-1.18
2022-12-20T07:13:53.596Z,-1.12
2022-12-20T07:16:21.343Z,-1.04
2022-12-20T07:18:53.960Z,-0.94
2022-12-20T07:21:21.911Z,-0.86
2022-12-20T07:23:49.252Z,-0.79
2022-12-20T07:26:16.882Z,-0.70
2022-12-20T07:28:44.670Z,-0.61
2022-12-20T07:31:12.496Z,-0.53
2022-12-20T07:33:40.149Z,-0.42
2022-12-20T07:36:13.800Z,-0.34
2022-12-20T07:38:41.541Z,-0.23
2022-12-20T07:41:11.687Z,-0.17
2022-12-20T07:43:39.768Z,-0.12
2022-12-20T07:46:08.383Z,-0.04
2022-12-20T07:48:36.388Z,0.01
2022-12-20T07:51:12.306Z,0.10
2022-12-20T07:53:47.843Z,0.18
2022-12-20T07:56:16.529Z,0.24
2022-12-20T07:58:44.855Z,0.29
2022-12-20T08:01:13.112Z,0.37
2022-12-20T08:03:45.852Z,0.42
2022-12-20T08:06:15.498Z,0.47
2022-12-20T08:08:47.666Z,0.51
2022-12-20T08:11:16.786Z,0.54
2022-12-20T08:13:46.794Z,0.57
2022-12-20T08:16:14.442Z,0.63
2022-12-20T08:18:42.401Z,0.67
2022-12-20T08:21:11.974Z,0.70
2022-12-20T08:23:40.048Z,0.73
2022-12-20T08:26:08.124Z,0.76
2022-12-20T08:28:36.279Z,0.79
2022-12-20T08:31:08.013Z,0.85
2022-12-20T08:33:37.923Z,0.87
2022-12-20T08:36:09.898Z,0.93
2022-12-20T08:38:38.145Z,1.00
2022-12-20T08:41:10.350Z,1.04
2022-12-20T08:43:39.629Z,1.08
2022-12-20T08:46:10.390Z,1.10
2022-12-20T08:48:38.243Z,1.14
2022-12-20T08:51:09.092Z,1.18
2022-12-20T08:53:37.980Z,1.21
2022-12-20T08:56:15.758Z,1.28
2022-12-20T08:58:44.906Z,1.32
2022-12-20T09:01:16.906Z,1.39
2022-12-20T09:03:45.837Z,1.44
2022-12-20T09:06:19.327Z,1.49
2022-12-20T09:08:48.315Z,1.54
2022-12-20T09:11:20.367Z,1.63
2022-12-20T09:13:51.155Z,1.67
2022-12-20T09:16:21.914Z,1.72
2022-12-20T09:18:52.135Z,1.75
2022-12-20T09:21:20.258Z,1.77
2022-12-20T09:23:53.939Z,1.82
2022-12-20T09:26:23.236Z,1.86
2022-12-20T09:28:51.938Z,1.90
2022-12-20T09:31:24.016Z,1.92
2022-12-20T09:33:54.989Z,1.96
2022-12-20T09:36:26.195Z,2.01
2022-12-20T09:38:54.972Z,1.93
2022-12-20T09:41:42.594Z,1.91
2022-12-20T09:44:21.831Z,1.90
2022-12-20T09:47:03.535Z,1.88
2022-12-20T09:49:33.656Z,1.84
2022-12-20T09:52:19.390Z,1.80
2022-12-20T09:55:22.295Z,1.76
2022-12-20T09:58:19.646Z,1.76
2022-12-20T10:00:53.777Z,1.79
2022-12-20T10:03:26.516Z,1.86
2022-12-20T10:06:02.214Z,1.89
2022-12-20T10:08:54.106Z,1.95
2022-12-20T10:11:42.050Z,1.99
2022-12-20T10:14:33.980Z,2.01
2022-12-20T10:17:26.194Z,2.03
2022-12-20T10:20:34.008Z,2.03
2022-12-20T10:23:39.187Z,2.03
2022-12-20T10:26:12.919Z,2.02
2022-12-20T10:28:40.831Z,2.02
2022-12-20T10:31:13.510Z,2.03
2022-12-20T10:33:42.158Z,2.10
2022-12-20T10:36:31.756Z,2.12
2022-12-20T10:39:02.710Z,2.13
2022-12-20T10:41:45.067Z,2.18
2022-12-20T10:44:25.878Z,2.19
2022-12-20T10:46:59.615Z,2.21
2022-12-20T10:49:32.743Z,2.25
2022-12-20T10:52:13.595Z,2.29
2022-12-20T10:54:45.256Z,2.30
2022-12-20T10:57:28.491Z,2.36
2022-12-20T11:00:05.902Z,2.36
2022-12-20T11:02:42.300Z,2.37
2022-12-20T11:05:17.014Z,2.37
2022-12-20T11:08:34.681Z,2.42
2022-12-20T11:10:37.559Z,2.50
2022-12-20T11:13:06.058Z,2.55
2022-12-20T11:15:36.149Z,2.60
2022-12-20T11:18:14.880Z,2.63
2022-12-20T11:21:16.975Z,2.63
2022-12-20T11:23:47.844Z,2.65
2022-12-20T11:26:58.881Z,2.67
2022-12-20T11:29:44.487Z,2.69
2022-12-20T11:32:48.338Z,2.70
2022-12-20T11:35:38.823Z,2.64
2022-12-20T11:38:28.357Z,2.61
2022-12-20T11:41:04.696Z,2.53
2022-12-20T11:44:27.770Z,2.46
2022-12-20T11:47:06.519Z,2.39
2022-12-20T11:50:15.018Z,2.40
2022-12-20T11:52:53.820Z,2.45
2022-12-20T11:55:32.595Z,2.52
2022-12-20T11:58:23.756Z,2.61
2022-12-20T12:00:39.915Z,2.72
2022-12-20T12:03:28.034Z,2.81
2022-12-20T12:06:18.293Z,2.88
2022-12-20T12:08:59.812Z,2.96
2022-12-20T12:12:05.243Z,2.98
2022-12-20T12:14:04.723Z,3.02
2022-12-20T12:16:39.718Z,3.08
2022-12-20T12:19:12.944Z,3.13
2022-12-20T12:21:46.132Z,3.16
2022-12-20T12:24:30.021Z,3.24
2022-12-20T12:26:59.507Z,3.25
2022-12-20T12:29:29.841Z,3.24
2022-12-20T12:32:08.460Z,3.20
2022-12-20T12:34:59.589Z,3.21
2022-12-20T12:37:55.780Z,3.25
2022-12-20T12:41:03.985Z,3.28
2022-12-20T12:43:55.907Z,3.31
2022-12-20T12:46:28.211Z,3.36
2022-12-20T12:49:10.644Z,3.36
2022-12-20T12:51:44.709Z,3.35
2022-12-20T12:54:25.954Z,3.36
2022-12-20T12:57:13.657Z,3.39
2022-12-20T12:59:48.048Z,3.39
2022-12-20T13:02:21.422Z,3.40
2022-12-20T13:05:12.245Z,3.39
2022-12-20T13:07:45.385Z,3.34
2022-12-20T13:10:23.029Z,3.31
2022-12-20T13:12:58.376Z,3.28
2022-12-20T13:15:32.147Z,3.26
2022-12-20T13:18:12.283Z,3.28
2022-12-20T13:20:40.101Z,3.27
2022-12-20T13:23:17.653Z,3.26
2022-12-20T13:25:53.846Z,3.27
2022-12-20T13:28:30.007Z,3.28
2022-12-20T13:31:11.893Z,3.27
2022-12-20T13:33:43.627Z,3.24
2022-12-20T13:36:25.787Z,3.21
2022-12-20T13:38:56.560Z,3.20
2022-12-20T13:41:47.646Z,3.17
2022-12-20T13:44:20.696Z,3.15
2022-12-20T13:47:09.543Z,3.12
2022-12-20T13:49:42.627Z,3.10
2022-12-20T13:52:32.809Z,3.12
2022-12-20T13:55:05.857Z,3.13
2022-12-20T13:57:44.443Z,3.10
2022-12-20T14:00:18.805Z,3.11
2022-12-20T14:02:47.071Z,3.10
2022-12-20T14:05:24.932Z,3.09
2022-12-20T14:08:03.733Z,3.06
2022-12-20T14:10:33.597Z,3.06
2022-12-20T14:13:01.725Z,3.02
2022-12-20T14:15:35.423Z,2.99
2022-12-20T14:18:08.277Z,2.96
2022-12-20T14:20:37.430Z,2.88
2022-12-20T14:23:15.984Z,2.82
2022-12-20T14:25:51.874Z,2.80
2022-12-20T14:28:39.123Z,2.76
2022-12-20T14:31:23.540Z,2.71
2022-12-20T14:33:52.054Z,2.66
2022-12-20T14:36:21.285Z,2.61
2022-12-20T14:38:52.024Z,2.55
2022-12-20T14:41:37.023Z,2.48
2022-12-20T14:44:20.902Z,2.41
2022-12-20T14:46:56.530Z,2.35
2022-12-20T14:49:30.992Z,2.27
2022-12-20T14:52:31.077Z,2.23
2022-12-20T14:55:21.886Z,2.17
2022-12-20T14:57:55.804Z,2.08
2022-12-20T15:00:28.830Z,2.05
2022-12-20T15:03:05.004Z,1.99
2022-12-20T15:05:41.348Z,1.97
2022-12-20T15:08:31.563Z,1.93
2022-12-20T15:11:10.458Z,1.89
2022-12-20T15:13:46.289Z,1.88
2022-12-20T15:16:23.847Z,1.86
2022-12-20T15:18:58.603Z,1.82
2022-12-20T15:21:33.219Z,1.79
2022-12-20T15:24:08.514Z,1.74
2022-12-20T15:26:37.072Z,1.70
2022-12-20T15:29:06.048Z,1.64
2022-12-20T15:31:36.317Z,1.59
2022-12-20T15:34:13.864Z,1.57
2022-12-20T15:36:41.628Z,1.53
2022-12-20T15:39:13.839Z,1.51
2022-12-20T15:41:46.721Z,1.47
2022-12-20T15:44:26.929Z,1.45
2022-12-20T15:46:54.728Z,1.45
2022-12-20T15:49:29.559Z,1.40
2022-12-20T15:51:57.674Z,1.34
2022-12-20T15:54:29.553Z,1.30
2022-12-20T15:57:01.962Z,1.27
2022-12-20T16:02:00.770Z,1.19
2022-12-20T16:04:28.519Z,1.18
2022-12-20T16:06:56.208Z,1.17
2022-12-20T16:09:25.506Z,1.15
2022-12-20T16:11:53.119Z,1.17
2022-12-20T16:14:21.416Z,1.16
2022-12-20T16:16:49.805Z,1.14
2022-12-20T16:19:18.782Z,1.11
2022-12-20T16:21:50.699Z,1.09
2022-12-20T16:24:20.401Z,1.05
2022-12-20T16:26:51.159Z,1.02
2022-12-20T16:29:19.035Z,0.97
2022-12-20T16:31:46.371Z,0.96
2022-12-20T16:34:17.056Z,0.93
2022-12-20T16:36:46.007Z,0.92
2022-12-20T16:39:13.928Z,0.91
2022-12-20T16:41:43.726Z,0.86
2022-12-20T16:44:16.634Z,0.82
2022-12-20T16:46:45.086Z,0.80
2022-12-20T16:49:19.971Z,0.78
2022-12-20T16:51:46.060Z,0.78
2022-12-20T16:54:22.446Z,0.76
2022-12-20T16:56:54.035Z,0.75
2022-12-20T16:59:24.757Z,0.76
2022-12-20T17:01:54.953Z,0.77
2022-12-20T17:04:24.028Z,0.78
2022-12-20T17:06:51.647Z,0.80
2022-12-20T17:09:20.052Z,0.78
2022-12-20T17:11:49.441Z,0.77
2022-12-20T17:14:19.115Z,0.74
2022-12-20T17:16:46.997Z,0.72
2022-12-20T17:19:14.464Z,0.70
2022-12-20T17:24:34.719Z,0.65
2022-12-20T17:27:02.672Z,0.62
2022-12-20T17:29:30.456Z,0.58
2022-12-20T17:31:58.154Z,0.56
2022-12-20T17:34:30.440Z,0.51
2022-12-20T17:36:58.697Z,0.51
2022-12-20T17:39:26.511Z,0.50
2022-12-20T17:41:55.325Z,0.49
2022-12-20T17:44:26.391Z,0.45
2022-12-20T17:46:55.977Z,0.46
2022-12-20T17:49:24.415Z,0.42
2022-12-20T17:51:52.100Z,0.39
2022-12-20T17:54:25.797Z,0.34
2022-12-20T17:56:53.652Z,0.31
2022-12-20T17:59:22.021Z,0.29
2022-12-20T18:01:49.872Z,0.29
2022-12-20T18:04:18.028Z,0.26
2022-12-20T18:06:46.644Z,0.25
2022-12-20T18:09:18.283Z,0.22
2022-12-20T18:11:47.289Z,0.21
2022-12-20T18:14:15.438Z,0.21
2022-12-20T18:16:43.713Z,0.22
2022-12-20T18:19:18.491Z,0.19
2022-12-20T18:21:46.334Z,0.18
2022-12-20T18:24:15.834Z,0.15
2022-12-20T18:26:44.517Z,0.14
2022-12-20T18:29:12.215Z,0.12
2022-12-20T18:31:40.046Z,0.12
2022-12-20T18:34:07.817Z,0.09
2022-12-20T18:36:37.327Z,0.07
2022-12-20T18:39:07.602Z,0.05
2022-12-20T18:41:35.419Z,0.02
2022-12-20T18:44:06.401Z,-0.02
2022-12-20T18:46:34.161Z,-0.02
2022-12-20T18:49:03.373Z,-0.02
2022-12-20T18:51:37.853Z,0.00
2022-12-20T18:54:07.982Z,0.02
2022-12-20T18:56:37.857Z,0.06
2022-12-20T18:59:12.106Z,0.07
2022-12-20T19:01:38.415Z,0.07
2022-12-20T19:04:07.673Z,0.07
2022-12-20T19:06:36.982Z,0.07
2022-12-20T19:09:10.038Z,0.02
2022-12-20T19:11:37.875Z,0.03
2022-12-20T19:14:07.081Z,0.04
2022-12-20T19:16:35.493Z,0.04
2022-12-20T19:19:04.042Z,0.02
2022-12-20T19:21:34.732Z,-0.01
2022-12-20T19:24:06.345Z,-0.02
2022-12-20T19:26:36.185Z,-0.04
2022-12-20T19:29:06.529Z,-0.05
2022-12-20T19:31:36.975Z,-0.04
2022-12-20T19:34:09.786Z,-0.06
2022-12-20T19:36:41.713Z,-0.07
2022-12-20T19:39:22.775Z,-0.07
2022-12-20T19:42:21.801Z,-0.07
2022-12-20T19:44:21.146Z,-0.10
2022-12-20T19:46:48.559Z,-0.12
2022-12-20T19:49:16.462Z,-0.13
2022-12-20T19:51:44.221Z,-0.17
2022-12-20T19:54:11.905Z,-0.18
2022-12-20T19:56:39.744Z,-0.23
2022-12-20T19:59:11.419Z,-0.26
2022-12-20T20:01:39.260Z,-0.29
2022-12-20T20:04:08.944Z,-0.32
2022-12-20T20:06:36.502Z,-0.37
2022-12-20T20:09:04.144Z,-0.39
2022-12-20T20:11:31.832Z,-0.41
2022-12-20T20:14:01.381Z,-0.41
2022-12-20T20:16:29.175Z,-0.44
2022-12-20T20:18:57.432Z,-0.45
2022-12-20T20:21:25.377Z,-0.44
2022-12-20T20:23:54.419Z,-0.43
2022-12-20T20:26:26.147Z,-0.44
2022-12-20T20:28:53.927Z,-0.42
2022-12-20T20:31:22.218Z,-0.42
2022-12-20T20:33:50.347Z,-0.42
2022-12-20T20:36:21.655Z,-0.42
2022-12-20T20:38:51.787Z,-0.43
2022-12-20T20:41:19.691Z,-0.46
2022-12-20T20:43:47.521Z,-0.47
2022-12-20T20:46:17.238Z,-0.49
2022-12-20T20:48:45.799Z,-0.46
2022-12-20T20:51:13.815Z,-0.43
2022-12-20T20:53:41.873Z,-0.43
2022-12-20T20:56:10.220Z,-0.43
2022-12-20T20:58:38.341Z,-0.44
2022-12-20T21:01:08.855Z,-0.46
2022-12-20T21:03:37.630Z,-0.48
2022-12-20T21:06:39.194Z,-0.49
2022-12-20T21:08:36.935Z,-0.50
2022-12-20T21:11:07.002Z,-0.50
2022-12-20T21:13:34.927Z,-0.50
2022-12-20T21:16:13.257Z,-0.51
2022-12-20T21:18:41.189Z,-0.51
2022-12-20T21:21:11.964Z,-0.51
2022-12-20T21:23:45.783Z,-0.45
2022-12-20T21:26:15.461Z,-0.43
2022-12-20T21:28:43.587Z,-0.42
2022-12-20T21:31:15.836Z,-0.41
2022-12-20T21:33:47.483Z,-0.43
2022-12-20T21:36:18.561Z,-0.45
2022-12-20T21:38:55.873Z,-0.47
2022-12-20T21:41:27.404Z,-0.52
2022-12-20T21:43:57.697Z,-0.53
2022-12-20T21:46:28.657Z,-0.54
2022-12-20T21:48:56.235Z,-0.60
2022-12-20T21:51:25.920Z,-0.62
2022-12-20T21:53:57.538Z,-0.57
2022-12-20T21:56:27.624Z,-0.58
2022-12-20T21:58:55.601Z,-0.58
2022-12-20T22:01:26.202Z,-0.58
2022-12-20T22:04:01.127Z,-0.62
2022-12-20T22:06:29.121Z,-0.63
2022-12-20T22:09:00.104Z,-0.59
2022-12-20T22:11:28.718Z,-0.57
2022-12-20T22:13:56.743Z,-0.52
2022-12-20T22:16:29.573Z,-0.52
2022-12-20T22:18:58.710Z,-0.51
2022-12-20T22:21:29.975Z,-0.52
2022-12-20T22:23:59.442Z,-0.54
2022-12-20T22:26:30.360Z,-0.53
2022-12-20T22:29:04.768Z,-0.54
2022-12-20T22:31:33.196Z,-0.54
2022-12-20T22:34:01.408Z,-0.54
2022-12-20T22:36:29.068Z,-0.53
2022-12-20T22:38:57.907Z,-0.53
2022-12-20T22:41:29.351Z,-0.54
2022-12-20T22:44:00.212Z,-0.56
2022-12-20T22:46:28.900Z,-0.58
2022-12-20T22:49:00.812Z,-0.58
2022-12-20T22:51:33.992Z,-0.61
2022-12-20T22:54:01.914Z,-0.61
2022-12-20T22:56:29.520Z,-0.60
2022-12-20T22:58:57.287Z,-0.59
2022-12-20T23:01:25.525Z,-0.57
2022-12-20T23:03:53.674Z,-0.60
2022-12-20T23:06:21.923Z,-0.63
2022-12-20T23:08:49.864Z,-0.68
2022-12-20T23:11:42.362Z,-0.73
2022-12-20T23:14:37.641Z,-0.76
2022-12-20T23:17:08.625Z,-0.77
2022-12-20T23:19:55.074Z,-0.77
2022-12-20T23:22:41.332Z,-0.78
2022-12-20T23:25:16.086Z,-0.81
2022-12-20T23:27:46.818Z,-0.88
2022-12-20T23:30:17.950Z,-0.88
2022-12-20T23:32:46.155Z,-0.88
2022-12-20T23:35:17.653Z,-0.91
2022-12-20T23:37:45.802Z,-0.95
2022-12-20T23:40:15.825Z,-1.02
2022-12-20T23:42:44.608Z,-1.06
2022-12-20T23:45:12.735Z,-1.13
2022-12-20T23:47:40.092Z,-1.15
2022-12-20T23:50:09.037Z,-1.16
2022-12-20T23:52:36.589Z,-1.20
2022-12-20T23:55:05.709Z,-1.21
2022-12-20T23:57:33.487Z,-1.23
